Aktuální počasí v Česku a ve světě - METAR

Seznam meteostanic umístěných nejčasteji na letišti v ČR a ve světě

Vyhledat místa podle abecedy:
A B C D E F G H I J K L M N O P Q R S T U V W X Y Z

Filtrovat:

ID stanice:
a/nebo
Název místa (fulltext):
 
Místo (ID)Naposledy načteno 
Edinburgh (EGPH) 18.06.2021 07:50 UTC Zobrazit METAR
EGPH 180750Z VRB03KT 9999 BKN031 12/07 Q1020
Eindhoven (EHEH) 18.06.2021 07:55 UTC Zobrazit METAR
EHEH 180755Z AUTO 05007KT 030V090 9999 BKN110 OVC170 22/20 Q1013 BLU NOSIG
Entebbe (HUEN) 17.06.2021 15:00 UTC Zobrazit METAR
HUEN 171500Z 16010KT 9999 FEW023 26/17 Q1017 NOSIG
Esbjerg (EKEB) 18.06.2021 07:50 UTC Zobrazit METAR
EKEB 180750Z 33007KT 7000 BKN005 16/16 Q1016
Reklama

Reklama


Newslettter

Počasí na Váš email

Emaily jsou bez reklamy a bez spamu



Odhlásit newsletter



Kontaktujte nás

Kontaktujte Slunečno.cz

Kontaktujte provozovatele Slunecno.cz

Další české internetové stránky (nejen) o počasí najdete v katalogu TOPlist - weby o počasí nebo vyhledejte na internetu, co jste tu na Počasí Slunečno Slunečnu zatím nenašli:
Přidat mezzi oblíbené stránkyPřidat Slunečno.cz do oblíbených | Nastavit jako HOMEPAGENastavit Slunečno.cz jako HOMEPAGE

Posunout stránku nahoru Posunout stránku nahoru Posunout stránku nahoru
Reklama